Terminal Aerodrome Forecast
Issued by NWS

Home | Current Version | Previous Version | Text Only | Print | Product List | Glossary On
Versions: 1 2 3 4 5 6 7 8 9 10 11 12
921
FTUS43 KGRB 180520
TAFCWA
TAF
KCWA 180520Z 1806/1906 18006KT P6SM SKC
     FM181600 20014G22KT P6SM SKC
     FM182300 23011KT P6SM SCT050 SCT200 WS020/23040KT
     FM190200 26008KT P6SM SKC
      AMD LTD TO CLD VIS AND WIND TIL 181100=

USA.gov is the U.S. government's official web portal to all federal, state and local government web resources and services.